createdAt,value
2017-07-23T00:00:01.761Z,805.78
2017-07-23T00:00:06.167Z,805.75
2017-07-23T00:00:10.515Z,805.77
2017-07-23T00:00:14.741Z,805.79
2017-07-23T00:00:19.080Z,805.78
2017-07-23T00:00:23.544Z,805.79
2017-07-23T00:00:28.034Z,805.78
2017-07-23T00:00:32.488Z,805.79
2017-07-23T00:00:36.955Z,805.75
2017-07-23T00:00:41.286Z,805.77
2017-07-23T00:00:45.741Z,805.77
2017-07-23T00:00:50.186Z,805.73
2017-07-23T00:00:54.552Z,805.76
2017-07-23T00:00:59.026Z,805.77
2017-07-23T00:01:03.402Z,805.77
2017-07-23T00:01:07.856Z,805.74
2017-07-23T00:01:12.308Z,805.78
2017-07-23T00:01:16.782Z,805.79
2017-07-23T00:01:21.107Z,805.76
2017-07-23T00:01:25.572Z,805.76
2017-07-23T00:01:29.930Z,805.73
2017-07-23T00:01:34.408Z,805.74
2017-07-23T00:01:38.856Z,805.75
2017-07-23T00:01:43.318Z,805.73
2017-07-23T00:01:47.785Z,805.73
2017-07-23T00:01:52.261Z,805.76
2017-07-23T00:01:56.481Z,805.75
2017-07-23T00:02:00.823Z,805.75
2017-07-23T00:02:05.059Z,805.71
2017-07-23T00:02:09.537Z,805.73
2017-07-23T00:02:14.001Z,805.69
2017-07-23T00:02:18.335Z,805.68
2017-07-23T00:02:22.793Z,805.72
2017-07-23T00:02:27.272Z,805.7
2017-07-23T00:02:31.735Z,805.69
2017-07-23T00:02:36.191Z,805.73
2017-07-23T00:02:40.637Z,805.71
2017-07-23T00:02:45.119Z,805.71
2017-07-23T00:02:49.586Z,805.69
2017-07-23T00:02:53.808Z,805.71
2017-07-23T00:02:58.152Z,805.71
2017-07-23T00:03:02.441Z,805.73
2017-07-23T00:03:06.786Z,805.72
2017-07-23T00:03:11.259Z,805.73
2017-07-23T00:03:15.631Z,805.72
2017-07-23T00:03:19.988Z,805.72
2017-07-23T00:03:24.440Z,805.7
2017-07-23T00:03:28.902Z,805.71
2017-07-23T00:03:33.366Z,805.69
2017-07-23T00:03:37.809Z,805.71
2017-07-23T00:03:42.156Z,805.67
2017-07-23T00:03:46.505Z,805.73
2017-07-23T00:03:50.961Z,805.67
2017-07-23T00:03:55.317Z,805.66
2017-07-23T00:03:59.785Z,805.67
2017-07-23T00:04:04.147Z,805.69
2017-07-23T00:04:08.491Z,805.67
2017-07-23T00:04:12.847Z,805.67
2017-07-23T00:04:17.316Z,805.67
2017-07-23T00:04:21.781Z,805.7
2017-07-23T00:04:26.240Z,805.68
2017-07-23T00:04:30.449Z,805.66
2017-07-23T00:04:34.802Z,805.65
2017-07-23T00:04:39.267Z,805.63
2017-07-23T00:04:43.481Z,805.61
2017-07-23T00:04:47.931Z,805.65
2017-07-23T00:04:52.285Z,805.63
2017-07-23T00:04:56.730Z,805.6
2017-07-23T00:05:01.067Z,805.63
2017-07-23T00:05:05.294Z,805.59
2017-07-23T00:05:09.756Z,805.59
2017-07-23T00:05:14.105Z,805.64
2017-07-23T00:05:18.444Z,805.6
2017-07-23T00:05:22.664Z,805.62
2017-07-23T00:05:27.142Z,805.64
2017-07-23T00:05:31.627Z,805.6
2017-07-23T00:05:36.098Z,805.61
2017-07-23T00:05:40.434Z,805.63
2017-07-23T00:05:44.889Z,805.62
2017-07-23T00:05:49.360Z,805.61
2017-07-23T00:05:53.817Z,805.59
2017-07-23T00:05:58.289Z,805.59
2017-07-23T00:06:02.951Z,805.58
2017-07-23T00:06:07.299Z,805.59
2017-07-23T00:06:11.770Z,805.59
2017-07-23T00:06:16.236Z,805.57
2017-07-23T00:06:20.592Z,805.55
2017-07-23T00:06:24.923Z,805.57
2017-07-23T00:06:29.271Z,805.57
2017-07-23T00:06:33.506Z,805.5
2017-07-23T00:06:37.973Z,805.51
2017-07-23T00:06:42.427Z,805.54
2017-07-23T00:06:46.937Z,805.55
2017-07-23T00:06:51.293Z,805.51
2017-07-23T00:06:55.637Z,805.5
2017-07-23T00:06:59.981Z,805.51
2017-07-23T00:07:04.631Z,805.5
2017-07-23T00:07:09.104Z,805.52
2017-07-23T00:07:13.572Z,805.5
2017-07-23T00:07:18.024Z,805.5
2017-07-23T00:07:22.505Z,805.47
2017-07-23T00:07:26.950Z,805.47
2017-07-23T00:07:31.178Z,805.51
2017-07-23T00:07:35.634Z,805.48
2017-07-23T00:07:40.109Z,805.5
2017-07-23T00:07:44.460Z,805.45
2017-07-23T00:07:48.926Z,805.48
2017-07-23T00:07:53.392Z,805.48
2017-07-23T00:07:57.847Z,805.46
2017-07-23T00:08:02.308Z,805.46
2017-07-23T00:08:06.649Z,805.46
2017-07-23T00:08:10.868Z,805.45
2017-07-23T00:08:15.340Z,805.44
2017-07-23T00:08:19.560Z,805.45
2017-07-23T00:08:24.009Z,805.39
2017-07-23T00:08:28.357Z,805.43
2017-07-23T00:08:32.607Z,805.44
2017-07-23T00:08:37.084Z,805.44
2017-07-23T00:08:41.429Z,805.38
2017-07-23T00:08:45.892Z,805.44
2017-07-23T00:08:50.350Z,805.44
2017-07-23T00:08:54.588Z,805.42
2017-07-23T00:08:58.934Z,805.41
2017-07-23T00:09:03.397Z,805.44
2017-07-23T00:09:07.625Z,805.38
2017-07-23T00:09:11.976Z,805.38
2017-07-23T00:09:16.429Z,805.38
2017-07-23T00:09:20.778Z,805.42
2017-07-23T00:09:25.257Z,805.4
2017-07-23T00:09:29.601Z,805.4
2017-07-23T00:09:34.074Z,805.4
2017-07-23T00:09:38.544Z,805.4
2017-07-23T00:09:42.878Z,805.4
2017-07-23T00:09:47.351Z,805.38
2017-07-23T00:09:51.815Z,805.37
2017-07-23T00:09:56.275Z,805.39
2017-07-23T00:10:00.624Z,805.39
2017-07-23T00:10:04.950Z,805.34
2017-07-23T00:10:09.060Z,805.4
2017-07-23T00:10:13.533Z,805.38
2017-07-23T00:10:18.015Z,805.34
2017-07-23T00:10:22.463Z,805.34
2017-07-23T00:10:26.929Z,805.36
2017-07-23T00:10:31.268Z,805.36
2017-07-23T00:10:35.627Z,805.36
2017-07-23T00:10:40.075Z,805.36
2017-07-23T00:10:44.529Z,805.36
2017-07-23T00:10:48.999Z,805.36
2017-07-23T00:10:53.113Z,805.38
2017-07-23T00:10:57.344Z,805.36
2017-07-23T00:11:01.676Z,805.33
2017-07-23T00:11:06.153Z,805.35
2017-07-23T00:11:10.491Z,805.35
2017-07-23T00:11:14.839Z,805.28
2017-07-23T00:11:19.289Z,805.3
2017-07-23T00:11:23.516Z,805.32
2017-07-23T00:11:27.994Z,805.3
2017-07-23T00:11:32.453Z,805.34
2017-07-23T00:11:36.921Z,805.29
2017-07-23T00:11:41.268Z,805.34
2017-07-23T00:11:45.599Z,805.31
2017-07-23T00:11:50.198Z,805.31
2017-07-23T00:11:54.661Z,805.35
2017-07-23T00:11:59.005Z,805.33
2017-07-23T00:12:03.473Z,805.31
2017-07-23T00:12:07.931Z,805.33
2017-07-23T00:12:12.178Z,805.28
2017-07-23T00:12:16.522Z,805.29
2017-07-23T00:12:20.857Z,805.35
2017-07-23T00:12:25.202Z,805.33
2017-07-23T00:12:29.675Z,805.32
2017-07-23T00:12:34.038Z,805.31
2017-07-23T00:12:38.493Z,805.3
2017-07-23T00:12:42.596Z,805.3
2017-07-23T00:12:47.080Z,805.29
2017-07-23T00:12:51.543Z,805.29
2017-07-23T00:12:56.012Z,805.31
2017-07-23T00:13:00.350Z,805.31
2017-07-23T00:13:05.172Z,805.27
2017-07-23T00:13:09.621Z,805.28
2017-07-23T00:13:13.853Z,805.24
2017-07-23T00:13:18.328Z,805.32
2017-07-23T00:13:22.698Z,805.28
2017-07-23T00:13:27.165Z,805.34
2017-07-23T00:13:31.608Z,805.34
2017-07-23T00:13:35.944Z,805.31
2017-07-23T00:13:40.409Z,805.31
2017-07-23T00:13:44.877Z,805.33
2017-07-23T00:13:49.344Z,805.35
2017-07-23T00:13:53.811Z,805.27
2017-07-23T00:13:58.279Z,805.33
2017-07-23T00:14:02.664Z,805.32
2017-07-23T00:14:07.122Z,805.32
2017-07-23T00:14:11.599Z,805.32
2017-07-23T00:14:15.956Z,805.34
2017-07-23T00:14:20.423Z,805.32
2017-07-23T00:14:24.751Z,805.34
2017-07-23T00:14:28.972Z,805.32
2017-07-23T00:14:33.326Z,805.34
2017-07-23T00:14:37.673Z,805.35
2017-07-23T00:14:41.999Z,805.34
2017-07-23T00:14:46.447Z,805.35
2017-07-23T00:14:50.924Z,805.35
2017-07-23T00:14:55.380Z,805.37
2017-07-23T00:14:59.601Z,805.37
2017-07-23T00:15:03.966Z,805.38
2017-07-23T00:15:08.428Z,805.38
2017-07-23T00:15:12.887Z,805.36
2017-07-23T00:15:17.243Z,805.34
2017-07-23T00:15:21.589Z,805.34
2017-07-23T00:15:26.051Z,805.37
2017-07-23T00:15:30.516Z,805.35
2017-07-23T00:15:34.865Z,805.33
2017-07-23T00:15:39.228Z,805.37
2017-07-23T00:15:43.571Z,805.37
2017-07-23T00:15:48.034Z,805.37
2017-07-23T00:15:52.494Z,805.39
2017-07-23T00:15:56.957Z,805.4
2017-07-23T00:16:01.184Z,805.4
2017-07-23T00:16:05.683Z,805.41
2017-07-23T00:16:10.152Z,805.4
2017-07-23T00:16:14.503Z,805.38
2017-07-23T00:16:18.858Z,805.42
2017-07-23T00:16:23.205Z,805.37
2017-07-23T00:16:27.432Z,805.38
2017-07-23T00:16:31.777Z,805.43
2017-07-23T00:16:36.247Z,805.39
2017-07-23T00:16:40.601Z,805.4
2017-07-23T00:16:45.054Z,805.43
2017-07-23T00:16:49.511Z,805.43
2017-07-23T00:16:53.981Z,805.46
2017-07-23T00:16:58.323Z,805.44
2017-07-23T00:17:02.887Z,805.43
2017-07-23T00:17:07.252Z,805.45
2017-07-23T00:17:11.726Z,805.46
2017-07-23T00:17:15.964Z,805.48
2017-07-23T00:17:20.422Z,805.46
2017-07-23T00:17:24.905Z,805.46
2017-07-23T00:17:29.258Z,805.47
2017-07-23T00:17:33.709Z,805.44
2017-07-23T00:17:38.169Z,805.5
2017-07-23T00:17:42.627Z,805.48
2017-07-23T00:17:47.084Z,805.5
2017-07-23T00:17:51.540Z,805.47
2017-07-23T00:17:55.891Z,805.46
2017-07-23T00:18:00.351Z,805.54
2017-07-23T00:18:04.700Z,805.54
2017-07-23T00:18:09.040Z,805.56
2017-07-23T00:18:13.391Z,805.57
2017-07-23T00:18:17.764Z,805.58
2017-07-23T00:18:22.222Z,805.54
2017-07-23T00:18:26.675Z,805.56
2017-07-23T00:18:31.130Z,805.58
2017-07-23T00:18:35.594Z,805.57
2017-07-23T00:18:40.053Z,805.57
2017-07-23T00:18:44.417Z,805.61
2017-07-23T00:18:48.886Z,805.61
2017-07-23T00:18:53.369Z,805.6
2017-07-23T00:18:57.843Z,805.63
2017-07-23T00:19:02.263Z,805.64
2017-07-23T00:19:06.505Z,805.61
2017-07-23T00:19:10.963Z,805.62
2017-07-23T00:19:15.415Z,805.59
2017-07-23T00:19:19.636Z,805.63
2017-07-23T00:19:23.989Z,805.65
2017-07-23T00:19:28.463Z,805.63
2017-07-23T00:19:32.920Z,805.65
2017-07-23T00:19:37.372Z,805.65
2017-07-23T00:19:41.845Z,805.66
2017-07-23T00:19:46.322Z,805.65
2017-07-23T00:19:50.666Z,805.69
2017-07-23T00:19:55.127Z,805.64
2017-07-23T00:19:59.365Z,805.71
2017-07-23T00:20:03.733Z,805.73
2017-07-23T00:20:07.941Z,805.7
2017-07-23T00:20:12.401Z,805.71
2017-07-23T00:20:16.750Z,805.73
2017-07-23T00:20:21.089Z,805.73
2017-07-23T00:20:25.428Z,805.72
2017-07-23T00:20:29.766Z,805.7
2017-07-23T00:20:34.121Z,805.74
2017-07-23T00:20:38.570Z,805.77
2017-07-23T00:20:42.814Z,805.78
2017-07-23T00:20:47.286Z,805.77
2017-07-23T00:20:51.734Z,805.8
2017-07-23T00:20:56.203Z,805.76
2017-07-23T00:21:00.661Z,805.76
2017-07-23T00:21:05.006Z,805.81
2017-07-23T00:21:09.225Z,805.82
2017-07-23T00:21:13.680Z,805.82
2017-07-23T00:21:18.147Z,805.86
2017-07-23T00:21:22.498Z,805.8
2017-07-23T00:21:26.734Z,805.83
2017-07-23T00:21:31.075Z,805.89
2017-07-23T00:21:35.431Z,805.83
2017-07-23T00:21:39.784Z,805.91
2017-07-23T00:21:44.258Z,805.89
2017-07-23T00:21:48.735Z,805.84
2017-07-23T00:21:53.193Z,805.9
2017-07-23T00:21:57.655Z,805.93
2017-07-23T00:22:02.122Z,805.95
2017-07-23T00:22:06.584Z,805.9
2017-07-23T00:22:10.810Z,805.91
2017-07-23T00:22:15.273Z,805.92
2017-07-23T00:22:19.731Z,805.96
2017-07-23T00:22:23.965Z,805.97
2017-07-23T00:22:28.422Z,805.97
2017-07-23T00:22:32.780Z,805.98
2017-07-23T00:22:37.235Z,805.99
2017-07-23T00:22:41.574Z,806
2017-07-23T00:22:46.045Z,806
2017-07-23T00:22:50.504Z,806.01
2017-07-23T00:22:54.960Z,806.03
2017-07-23T00:22:59.415Z,806.02
2017-07-23T00:23:03.826Z,806.03
2017-07-23T00:23:08.287Z,806.01
2017-07-23T00:23:12.744Z,806.03
2017-07-23T00:23:17.092Z,806.01
2017-07-23T00:23:21.542Z,806.07
2017-07-23T00:23:25.896Z,806.01
2017-07-23T00:23:30.365Z,806.05
2017-07-23T00:23:34.727Z,806.07
2017-07-23T00:23:39.186Z,806.06
2017-07-23T00:23:43.537Z,806.08
2017-07-23T00:23:48.011Z,806.1
2017-07-23T00:23:52.469Z,806.11
2017-07-23T00:23:56.932Z,806.13
2017-07-23T00:24:01.273Z,806.12
2017-07-23T00:24:05.756Z,806.14
2017-07-23T00:24:09.980Z,806.13
2017-07-23T00:24:14.433Z,806.13
2017-07-23T00:24:18.783Z,806.14
2017-07-23T00:24:23.257Z,806.12
2017-07-23T00:24:27.618Z,806.15
2017-07-23T00:24:31.960Z,806.12
2017-07-23T00:24:36.419Z,806.18
2017-07-23T00:24:40.766Z,806.19
2017-07-23T00:24:45.246Z,806.18
2017-07-23T00:24:49.719Z,806.17
2017-07-23T00:24:54.176Z,806.18
2017-07-23T00:24:58.513Z,806.19
2017-07-23T00:25:02.986Z,806.2
2017-07-23T00:25:07.328Z,806.2
2017-07-23T00:25:11.797Z,806.21
2017-07-23T00:25:16.166Z,806.23
2017-07-23T00:25:20.508Z,806.2
2017-07-23T00:25:24.852Z,806.21
2017-07-23T00:25:29.294Z,806.21
2017-07-23T00:25:33.687Z,806.26
2017-07-23T00:25:38.047Z,806.24
2017-07-23T00:25:42.379Z,806.22
2017-07-23T00:25:46.849Z,806.28
2017-07-23T00:25:51.088Z,806.26
2017-07-23T00:25:55.555Z,806.28
2017-07-23T00:25:59.780Z,806.29
2017-07-23T00:26:04.235Z,806.27
2017-07-23T00:26:08.730Z,806.28
2017-07-23T00:26:13.066Z,806.27
2017-07-23T00:26:17.527Z,806.29
2017-07-23T00:26:21.879Z,806.3
2017-07-23T00:26:26.232Z,806.31
2017-07-23T00:26:30.568Z,806.28
2017-07-23T00:26:35.036Z,806.29
2017-07-23T00:26:39.514Z,806.32
2017-07-23T00:26:43.896Z,806.32
2017-07-23T00:26:48.234Z,806.31
2017-07-23T00:26:52.465Z,806.32
2017-07-23T00:26:56.934Z,806.3
2017-07-23T00:27:01.278Z,806.3
2017-07-23T00:27:05.756Z,806.31
2017-07-23T00:27:10.100Z,806.32
2017-07-23T00:27:14.565Z,806.32
2017-07-23T00:27:19.022Z,806.32
2017-07-23T00:27:23.376Z,806.32
2017-07-23T00:27:27.851Z,806.3
2017-07-23T00:27:32.217Z,806.32
2017-07-23T00:27:36.683Z,806.32
2017-07-23T00:27:41.008Z,806.34
2017-07-23T00:27:45.222Z,806.32
2017-07-23T00:27:49.701Z,806.33
2017-07-23T00:27:54.160Z,806.34
2017-07-23T00:27:58.596Z,806.29
2017-07-23T00:28:03.068Z,806.35
2017-07-23T00:28:07.548Z,806.37
2017-07-23T00:28:11.777Z,806.33
2017-07-23T00:28:16.122Z,806.35
2017-07-23T00:28:20.464Z,806.34
2017-07-23T00:28:24.801Z,806.36
2017-07-23T00:28:29.030Z,806.36
2017-07-23T00:28:33.370Z,806.34
2017-07-23T00:28:37.717Z,806.36
2017-07-23T00:28:41.961Z,806.37
2017-07-23T00:28:46.434Z,806.35
2017-07-23T00:28:50.758Z,806.39
2017-07-23T00:28:55.234Z,806.36
2017-07-23T00:28:59.473Z,806.35
2017-07-23T00:29:04.083Z,806.37
2017-07-23T00:29:08.534Z,806.37
2017-07-23T00:29:12.872Z,806.35
2017-07-23T00:29:17.215Z,806.38
2017-07-23T00:29:21.443Z,806.38
2017-07-23T00:29:25.904Z,806.38
2017-07-23T00:29:30.241Z,806.38
2017-07-23T00:29:34.473Z,806.39
2017-07-23T00:29:38.915Z,806.37
2017-07-23T00:29:43.249Z,806.31
2017-07-23T00:29:47.683Z,806.36
2017-07-23T00:29:52.161Z,806.39
2017-07-23T00:29:56.616Z,806.4
2017-07-23T00:30:00.971Z,806.42
2017-07-23T00:30:05.320Z,806.42
2017-07-23T00:30:09.789Z,806.39
2017-07-23T00:30:14.251Z,806.39
2017-07-23T00:30:18.710Z,806.41
2017-07-23T00:30:23.050Z,806.41
2017-07-23T00:30:27.285Z,806.4
2017-07-23T00:30:31.752Z,806.39
2017-07-23T00:30:35.981Z,806.39
2017-07-23T00:30:40.322Z,806.41
2017-07-23T00:30:44.652Z,806.38
2017-07-23T00:30:49.098Z,806.42
2017-07-23T00:30:53.570Z,806.37
2017-07-23T00:30:58.055Z,806.4
2017-07-23T00:31:02.409Z,806.4
2017-07-23T00:31:06.755Z,806.38
2017-07-23T00:31:11.231Z,806.35
2017-07-23T00:31:15.576Z,806.36
2017-07-23T00:31:19.797Z,806.4
2017-07-23T00:31:24.008Z,806.41
2017-07-23T00:31:28.468Z,806.45
2017-07-23T00:31:32.721Z,806.43
2017-07-23T00:31:37.188Z,806.42
2017-07-23T00:31:41.533Z,806.42
2017-07-23T00:31:46.001Z,806.4
2017-07-23T00:31:50.360Z,806.39
2017-07-23T00:31:54.821Z,806.38
2017-07-23T00:31:59.278Z,806.41
2017-07-23T00:32:03.495Z,806.41
2017-07-23T00:32:07.724Z,806.38
2017-07-23T00:32:12.186Z,806.39
2017-07-23T00:32:16.408Z,806.4
2017-07-23T00:32:20.877Z,806.4
2017-07-23T00:32:25.243Z,806.4
2017-07-23T00:32:29.567Z,806.37
2017-07-23T00:32:34.033Z,806.4
2017-07-23T00:32:38.506Z,806.34
2017-07-23T00:32:42.967Z,806.41
2017-07-23T00:32:47.414Z,806.38
2017-07-23T00:32:51.872Z,806.35
2017-07-23T00:32:56.329Z,806.37
2017-07-23T00:33:00.688Z,806.39
2017-07-23T00:33:05.158Z,806.4
2017-07-23T00:33:09.629Z,806.38
2017-07-23T00:33:14.093Z,806.33
2017-07-23T00:33:18.340Z,806.31
2017-07-23T00:33:22.810Z,806.34
2017-07-23T00:33:27.274Z,806.36
2017-07-23T00:33:31.623Z,806.37
2017-07-23T00:33:36.099Z,806.35
2017-07-23T00:33:40.546Z,806.35
2017-07-23T00:33:45.014Z,806.35
2017-07-23T00:33:49.491Z,806.35
2017-07-23T00:33:53.985Z,806.34
2017-07-23T00:33:58.441Z,806.36
2017-07-23T00:34:02.782Z,806.33
2017-07-23T00:34:07.011Z,806.31
2017-07-23T00:34:11.483Z,806.34
2017-07-23T00:34:15.702Z,806.33
2017-07-23T00:34:19.806Z,806.31
2017-07-23T00:34:24.273Z,806.3
2017-07-23T00:34:28.743Z,806.33
2017-07-23T00:34:32.955Z,806.27
2017-07-23T00:34:37.421Z,806.3
2017-07-23T00:34:41.884Z,806.33
2017-07-23T00:34:46.345Z,806.32
2017-07-23T00:34:50.799Z,806.29
2017-07-23T00:34:55.025Z,806.31
2017-07-23T00:34:59.136Z,806.33
2017-07-23T00:35:03.360Z,806.29
2017-07-23T00:35:07.834Z,806.3
2017-07-23T00:35:12.297Z,806.25
2017-07-23T00:35:16.763Z,806.26
2017-07-23T00:35:21.103Z,806.25
2017-07-23T00:35:25.454Z,806.26
2017-07-23T00:35:29.789Z,806.25
2017-07-23T00:35:34.138Z,806.26
2017-07-23T00:35:38.604Z,806.24
2017-07-23T00:35:43.049Z,806.22
2017-07-23T00:35:47.291Z,806.26
2017-07-23T00:35:51.640Z,806.24
2017-07-23T00:35:56.103Z,806.22
2017-07-23T00:36:00.583Z,806.25
2017-07-23T00:36:05.153Z,806.22
2017-07-23T00:36:09.623Z,806.22
2017-07-23T00:36:14.070Z,806.23
2017-07-23T00:36:18.414Z,806.23
2017-07-23T00:36:22.882Z,806.23
2017-07-23T00:36:27.358Z,806.21
2017-07-23T00:36:31.834Z,806.22
2017-07-23T00:36:36.188Z,806.15
2017-07-23T00:36:40.519Z,806.21
2017-07-23T00:36:44.742Z,806.2
2017-07-23T00:36:49.202Z,806.19
2017-07-23T00:36:54.072Z,806.19
2017-07-23T00:36:58.532Z,806.21
2017-07-23T00:37:03.351Z,806.16
2017-07-23T00:37:07.836Z,806.2
2017-07-23T00:37:12.310Z,806.2
2017-07-23T00:37:16.677Z,806.17
2017-07-23T00:37:21.175Z,806.18
2017-07-23T00:37:25.406Z,806.19
2017-07-23T00:37:29.738Z,806.15
2017-07-23T00:37:34.197Z,806.18
2017-07-23T00:37:38.323Z,806.17
2017-07-23T00:37:42.671Z,806.13
2017-07-23T00:37:47.126Z,806.19
2017-07-23T00:37:51.596Z,806.18
2017-07-23T00:37:56.067Z,806.16
2017-07-23T00:38:00.525Z,806.16
2017-07-23T00:38:05.067Z,806.17
2017-07-23T00:38:09.526Z,806.16
2017-07-23T00:38:13.999Z,806.19
2017-07-23T00:38:18.337Z,806.16
2017-07-23T00:38:22.793Z,806.17
2017-07-23T00:38:27.139Z,806.16
2017-07-23T00:38:31.604Z,806.18
2017-07-23T00:38:36.065Z,806.16
2017-07-23T00:38:40.398Z,806.15
2017-07-23T00:38:44.759Z,806.16
2017-07-23T00:38:49.225Z,806.17
2017-07-23T00:38:53.683Z,806.11
2017-07-23T00:38:58.141Z,806.18
2017-07-23T00:39:02.635Z,806.16
2017-07-23T00:39:07.101Z,806.16
2017-07-23T00:39:11.561Z,806.14
2017-07-23T00:39:15.914Z,806.13
2017-07-23T00:39:20.381Z,806.13
2017-07-23T00:39:24.607Z,806.11
2017-07-23T00:39:29.082Z,806.11
2017-07-23T00:39:33.422Z,806.12
2017-07-23T00:39:37.766Z,806.1
2017-07-23T00:39:42.121Z,806.11
2017-07-23T00:39:46.567Z,806.11
2017-07-23T00:39:50.919Z,806.08
2017-07-23T00:39:55.405Z,806.08
2017-07-23T00:39:59.739Z,806.07
2017-07-23T00:40:04.258Z,806.05
2017-07-23T00:40:08.609Z,806.05
2017-07-23T00:40:12.981Z,806.07
2017-07-23T00:40:17.448Z,806.1
2017-07-23T00:40:21.897Z,806.07
2017-07-23T00:40:26.131Z,806.04
2017-07-23T00:40:30.468Z,806.03
2017-07-23T00:40:34.925Z,806.08
2017-07-23T00:40:39.374Z,806.05
2017-07-23T00:40:43.849Z,806.03
2017-07-23T00:40:48.324Z,806.02
2017-07-23T00:40:52.676Z,806.05
2017-07-23T00:40:56.782Z,806.06
2017-07-23T00:41:01.262Z,806
2017-07-23T00:41:05.711Z,806.07
2017-07-23T00:41:10.191Z,806.04
2017-07-23T00:41:14.650Z,806.07
2017-07-23T00:41:19.104Z,806.03
2017-07-23T00:41:23.572Z,806.04
2017-07-23T00:41:27.913Z,806.04
2017-07-23T00:41:32.132Z,806.02
2017-07-23T00:41:36.597Z,806.03
2017-07-23T00:41:41.058Z,806.01
2017-07-23T00:41:45.394Z,806
2017-07-23T00:41:49.845Z,806.02
2017-07-23T00:41:54.439Z,806
2017-07-23T00:41:58.773Z,805.91
2017-07-23T00:42:03.244Z,805.99
2017-07-23T00:42:07.611Z,805.98
2017-07-23T00:42:12.100Z,805.97
2017-07-23T00:42:16.441Z,805.93
2017-07-23T00:42:20.664Z,805.95
2017-07-23T00:42:25.000Z,805.91
2017-07-23T00:42:29.476Z,805.94
2017-07-23T00:42:33.925Z,805.94
2017-07-23T00:42:38.406Z,805.91
2017-07-23T00:42:42.751Z,805.93
2017-07-23T00:42:47.215Z,805.89
2017-07-23T00:42:51.686Z,805.89
2017-07-23T00:42:56.137Z,805.83
2017-07-23T00:43:00.470Z,805.87
2017-07-23T00:43:04.805Z,805.9
2017-07-23T00:43:09.261Z,805.84
2017-07-23T00:43:13.729Z,805.87
2017-07-23T00:43:18.186Z,805.82
2017-07-23T00:43:22.681Z,805.81
2017-07-23T00:43:27.024Z,805.79
2017-07-23T00:43:31.368Z,805.75
2017-07-23T00:43:35.718Z,805.8
2017-07-23T00:43:40.172Z,805.78
2017-07-23T00:43:44.521Z,805.81
2017-07-23T00:43:48.969Z,805.79
2017-07-23T00:43:53.481Z,805.76
2017-07-23T00:43:57.844Z,805.7
2017-07-23T00:44:02.192Z,805.71
2017-07-23T00:44:06.644Z,805.7
2017-07-23T00:44:11.107Z,805.7
2017-07-23T00:44:15.567Z,805.7
2017-07-23T00:44:19.917Z,805.69
2017-07-23T00:44:24.254Z,805.65
2017-07-23T00:44:28.582Z,805.63
2017-07-23T00:44:33.035Z,805.63
2017-07-23T00:44:37.497Z,805.61
2017-07-23T00:44:41.959Z,805.59
2017-07-23T00:44:46.344Z,805.58
2017-07-23T00:44:50.804Z,805.6
2017-07-23T00:44:55.261Z,805.51
2017-07-23T00:44:59.609Z,805.49
2017-07-23T00:45:04.071Z,805.52
2017-07-23T00:45:08.541Z,805.45
2017-07-23T00:45:13.004Z,805.52
2017-07-23T00:45:17.372Z,805.47
2017-07-23T00:45:21.716Z,805.45
2017-07-23T00:45:26.190Z,805.45
2017-07-23T00:45:30.413Z,805.4
2017-07-23T00:45:34.886Z,805.39
2017-07-23T00:45:39.331Z,805.35
2017-07-23T00:45:43.557Z,805.38
2017-07-23T00:45:48.025Z,805.3
2017-07-23T00:45:52.483Z,805.34
2017-07-23T00:45:56.830Z,805.31
2017-07-23T00:46:01.293Z,805.28
2017-07-23T00:46:05.816Z,805.29
2017-07-23T00:46:10.301Z,805.26
2017-07-23T00:46:14.528Z,805.21
2017-07-23T00:46:18.869Z,805.21
2017-07-23T00:46:23.213Z,805.17
2017-07-23T00:46:27.682Z,805.13
2017-07-23T00:46:31.915Z,805.16
2017-07-23T00:46:36.127Z,805.09
2017-07-23T00:46:40.484Z,805.1
2017-07-23T00:46:44.937Z,805.08
2017-07-23T00:46:49.267Z,805.02
2017-07-23T00:46:53.725Z,805.03
2017-07-23T00:46:58.178Z,805.01
2017-07-23T00:47:02.635Z,804.96
2017-07-23T00:47:06.862Z,804.93
2017-07-23T00:47:11.208Z,804.89
2017-07-23T00:47:15.562Z,804.77
2017-07-23T00:47:19.899Z,804.76
2017-07-23T00:47:24.352Z,804.71
2017-07-23T00:47:28.805Z,804.66
2017-07-23T00:47:33.151Z,804.59
2017-07-23T00:47:37.626Z,804.54
2017-07-23T00:47:41.977Z,804.5
2017-07-23T00:47:46.343Z,804.4
2017-07-23T00:47:50.826Z,804.36
2017-07-23T00:47:55.296Z,804.35
2017-07-23T00:47:59.519Z,804.29
2017-07-23T00:48:03.974Z,804.24
2017-07-23T00:48:08.307Z,804.14
2017-07-23T00:48:12.757Z,804.11
2017-07-23T00:48:17.219Z,804.07
2017-07-23T00:48:21.660Z,804.03
2017-07-23T00:48:26.136Z,804
2017-07-23T00:48:30.468Z,803.93
2017-07-23T00:48:34.930Z,803.88
2017-07-23T00:48:39.389Z,803.83
2017-07-23T00:48:43.757Z,803.79
2017-07-23T00:48:47.995Z,803.73
2017-07-23T00:48:52.346Z,803.65
2017-07-23T00:48:56.808Z,803.56
2017-07-23T00:49:01.272Z,803.53
2017-07-23T00:49:05.708Z,803.47
2017-07-23T00:49:10.173Z,803.43
2017-07-23T00:49:14.646Z,803.34
2017-07-23T00:49:18.988Z,803.28
2017-07-23T00:49:23.439Z,803.19
2017-07-23T00:49:27.903Z,803.19
2017-07-23T00:49:32.258Z,803.15
2017-07-23T00:49:36.714Z,803.05
2017-07-23T00:49:41.169Z,803.01
2017-07-23T00:49:45.514Z,802.97
2017-07-23T00:49:49.996Z,802.96
2017-07-23T00:49:54.337Z,802.87
2017-07-23T00:49:58.693Z,802.81
2017-07-23T00:50:03.311Z,802.75
2017-07-23T00:50:07.774Z,802.71
2017-07-23T00:50:12.237Z,802.65
2017-07-23T00:50:16.703Z,802.62
2017-07-23T00:50:21.041Z,802.59
2017-07-23T00:50:25.508Z,802.53
2017-07-23T00:50:29.960Z,802.46
2017-07-23T00:50:34.306Z,802.34
2017-07-23T00:50:38.658Z,802.33
2017-07-23T00:50:43.013Z,802.28
2017-07-23T00:50:47.490Z,802.23
2017-07-23T00:50:51.838Z,802.18
2017-07-23T00:50:56.316Z,802.12
2017-07-23T00:51:00.559Z,802.07
2017-07-23T00:51:05.008Z,802.02
2017-07-23T00:51:09.466Z,801.99
2017-07-23T00:51:13.934Z,801.92
2017-07-23T00:51:18.272Z,801.91
2017-07-23T00:51:22.731Z,801.85
2017-07-23T00:51:27.061Z,801.84
2017-07-23T00:51:31.175Z,801.78
2017-07-23T00:51:35.630Z,801.73
2017-07-23T00:51:40.110Z,801.69
2017-07-23T00:51:44.448Z,801.65
2017-07-23T00:51:48.907Z,801.62
2017-07-23T00:51:53.347Z,801.57
2017-07-23T00:51:57.909Z,801.53
2017-07-23T00:52:02.275Z,801.47
2017-07-23T00:52:06.636Z,801.49
2017-07-23T00:52:11.112Z,801.44
2017-07-23T00:52:15.570Z,801.43
2017-07-23T00:52:19.914Z,801.34
2017-07-23T00:52:24.370Z,801.33
2017-07-23T00:52:28.737Z,801.24
2017-07-23T00:52:33.085Z,801.22
2017-07-23T00:52:37.436Z,801.18
2017-07-23T00:52:41.914Z,801.2
2017-07-23T00:52:46.375Z,801.16
2017-07-23T00:52:50.847Z,801.11
2017-07-23T00:52:55.312Z,801.12
2017-07-23T00:52:59.785Z,801.05
2017-07-23T00:53:04.118Z,800.96
2017-07-23T00:53:08.578Z,800.92
2017-07-23T00:53:12.940Z,800.89
2017-07-23T00:53:17.402Z,800.89
2017-07-23T00:53:21.863Z,800.82
2017-07-23T00:53:26.199Z,800.79
2017-07-23T00:53:30.414Z,800.77
2017-07-23T00:53:34.890Z,800.74
2017-07-23T00:53:39.345Z,800.67
2017-07-23T00:53:43.823Z,800.66
2017-07-23T00:53:48.153Z,800.64
2017-07-23T00:53:52.504Z,800.59
2017-07-23T00:53:56.961Z,800.54
2017-07-23T00:54:01.201Z,800.53
2017-07-23T00:54:05.916Z,800.47
2017-07-23T00:54:10.381Z,800.47
2017-07-23T00:54:14.839Z,800.44
2017-07-23T00:54:19.181Z,800.42
2017-07-23T00:54:23.783Z,800.37
2017-07-23T00:54:28.253Z,800.32
2017-07-23T00:54:32.704Z,800.32
2017-07-23T00:54:37.176Z,800.28
2017-07-23T00:54:41.497Z,800.25
2017-07-23T00:54:45.945Z,800.25
2017-07-23T00:54:50.270Z,800.18
2017-07-23T00:54:54.629Z,800.15
2017-07-23T00:54:59.091Z,800.17
2017-07-23T00:55:03.527Z,800.18
2017-07-23T00:55:07.970Z,800.14